sensor_id;sensor_type;location;lat;lon;timestamp;temperature;humidity
11387;DHT22;5748;53.102;8.456;2024-02-14T00:00:08;11.10;66.50
11387;DHT22;5748;53.102;8.456;2024-02-14T00:02:37;11.00;66.40
11387;DHT22;5748;53.102;8.456;2024-02-14T00:05:05;11.00;66.40
11387;DHT22;5748;53.102;8.456;2024-02-14T00:07:33;11.00;66.40
11387;DHT22;5748;53.102;8.456;2024-02-14T00:09:59;11.00;66.40
11387;DHT22;5748;53.102;8.456;2024-02-14T00:12:27;11.00;66.60
11387;DHT22;5748;53.102;8.456;2024-02-14T00:14:54;11.00;66.70
11387;DHT22;5748;53.102;8.456;2024-02-14T00:17:22;11.00;66.70
11387;DHT22;5748;53.102;8.456;2024-02-14T00:19:50;11.00;66.70
11387;DHT22;5748;53.102;8.456;2024-02-14T00:22:17;11.00;66.80
11387;DHT22;5748;53.102;8.456;2024-02-14T00:24:44;11.00;66.70
11387;DHT22;5748;53.102;8.456;2024-02-14T00:27:11;11.00;66.70
11387;DHT22;5748;53.102;8.456;2024-02-14T00:29:39;11.00;66.80
11387;DHT22;5748;53.102;8.456;2024-02-14T00:32:06;11.10;66.80
11387;DHT22;5748;53.102;8.456;2024-02-14T00:34:35;11.10;66.90
11387;DHT22;5748;53.102;8.456;2024-02-14T00:37:02;11.10;66.90
11387;DHT22;5748;53.102;8.456;2024-02-14T00:39:29;11.00;66.90
11387;DHT22;5748;53.102;8.456;2024-02-14T00:41:56;11.00;66.90
11387;DHT22;5748;53.102;8.456;2024-02-14T00:44:23;11.00;66.90
11387;DHT22;5748;53.102;8.456;2024-02-14T00:46:56;11.00;67.00
11387;DHT22;5748;53.102;8.456;2024-02-14T00:49:24;11.00;67.20
11387;DHT22;5748;53.102;8.456;2024-02-14T00:51:53;11.00;67.10
11387;DHT22;5748;53.102;8.456;2024-02-14T00:54:20;11.00;67.20
11387;DHT22;5748;53.102;8.456;2024-02-14T00:56:47;10.90;67.20
11387;DHT22;5748;53.102;8.456;2024-02-14T00:59:14;10.90;68.00
11387;DHT22;5748;53.102;8.456;2024-02-14T01:01:42;10.90;67.20
11387;DHT22;5748;53.102;8.456;2024-02-14T01:04:10;10.90;67.30
11387;DHT22;5748;53.102;8.456;2024-02-14T01:06:37;10.90;67.40
11387;DHT22;5748;53.102;8.456;2024-02-14T01:09:05;10.90;67.50
11387;DHT22;5748;53.102;8.456;2024-02-14T01:11:32;10.90;67.50
11387;DHT22;5748;53.102;8.456;2024-02-14T01:13:59;10.90;67.60
11387;DHT22;5748;53.102;8.456;2024-02-14T01:16:27;10.90;67.60
11387;DHT22;5748;53.102;8.456;2024-02-14T01:18:54;10.90;67.80
11387;DHT22;5748;53.102;8.456;2024-02-14T01:21:21;10.90;67.80
11387;DHT22;5748;53.102;8.456;2024-02-14T01:23:48;10.80;67.80
11387;DHT22;5748;53.102;8.456;2024-02-14T01:26:16;10.80;67.80
11387;DHT22;5748;53.102;8.456;2024-02-14T01:28:43;10.80;67.90
11387;DHT22;5748;53.102;8.456;2024-02-14T01:31:10;10.80;68.00
11387;DHT22;5748;53.102;8.456;2024-02-14T01:33:38;10.80;68.00
11387;DHT22;5748;53.102;8.456;2024-02-14T01:36:06;10.80;68.10
11387;DHT22;5748;53.102;8.456;2024-02-14T01:38:33;10.70;68.20
11387;DHT22;5748;53.102;8.456;2024-02-14T01:41:01;11.10;68.60
11387;DHT22;5748;53.102;8.456;2024-02-14T01:43:31;10.80;68.40
11387;DHT22;5748;53.102;8.456;2024-02-14T01:46:04;10.80;68.40
11387;DHT22;5748;53.102;8.456;2024-02-14T01:48:33;10.70;68.30
11387;DHT22;5748;53.102;8.456;2024-02-14T01:51:02;10.80;68.40
11387;DHT22;5748;53.102;8.456;2024-02-14T01:53:30;10.70;68.40
11387;DHT22;5748;53.102;8.456;2024-02-14T01:55:59;10.80;68.60
11387;DHT22;5748;53.102;8.456;2024-02-14T01:58:26;10.70;68.50
11387;DHT22;5748;53.102;8.456;2024-02-14T02:00:55;10.80;68.70
11387;DHT22;5748;53.102;8.456;2024-02-14T02:03:24;10.80;68.80
11387;DHT22;5748;53.102;8.456;2024-02-14T02:05:52;10.70;68.90
11387;DHT22;5748;53.102;8.456;2024-02-14T02:08:19;10.80;68.70
11387;DHT22;5748;53.102;8.456;2024-02-14T02:10:47;10.70;68.60
11387;DHT22;5748;53.102;8.456;2024-02-14T02:13:14;10.80;68.80
11387;DHT22;5748;53.102;8.456;2024-02-14T02:15:41;10.80;68.70
11387;DHT22;5748;53.102;8.456;2024-02-14T02:18:12;10.80;68.80
11387;DHT22;5748;53.102;8.456;2024-02-14T02:20:40;10.80;68.70
11387;DHT22;5748;53.102;8.456;2024-02-14T02:23:10;10.80;68.80
11387;DHT22;5748;53.102;8.456;2024-02-14T02:25:40;10.80;68.90
11387;DHT22;5748;53.102;8.456;2024-02-14T02:28:07;10.80;68.90
11387;DHT22;5748;53.102;8.456;2024-02-14T02:30:35;10.80;68.90
11387;DHT22;5748;53.102;8.456;2024-02-14T02:33:02;10.80;68.90
11387;DHT22;5748;53.102;8.456;2024-02-14T02:35:30;10.80;69.00
11387;DHT22;5748;53.102;8.456;2024-02-14T02:37:57;10.80;69.70
11387;DHT22;5748;53.102;8.456;2024-02-14T02:40:26;10.80;69.00
11387;DHT22;5748;53.102;8.456;2024-02-14T02:42:53;10.70;69.10
11387;DHT22;5748;53.102;8.456;2024-02-14T02:45:20;10.80;69.10
11387;DHT22;5748;53.102;8.456;2024-02-14T02:47:47;10.80;69.10
11387;DHT22;5748;53.102;8.456;2024-02-14T02:50:16;10.70;69.10
11387;DHT22;5748;53.102;8.456;2024-02-14T02:52:45;10.70;69.10
11387;DHT22;5748;53.102;8.456;2024-02-14T02:55:12;10.70;69.20
11387;DHT22;5748;53.102;8.456;2024-02-14T02:57:42;10.70;69.30
11387;DHT22;5748;53.102;8.456;2024-02-14T03:00:10;10.70;69.40
11387;DHT22;5748;53.102;8.456;2024-02-14T03:02:39;10.70;69.40
11387;DHT22;5748;53.102;8.456;2024-02-14T03:05:09;10.70;69.40
11387;DHT22;5748;53.102;8.456;2024-02-14T03:07:43;10.70;69.50
11387;DHT22;5748;53.102;8.456;2024-02-14T03:10:12;10.70;69.50
11387;DHT22;5748;53.102;8.456;2024-02-14T03:12:41;10.70;69.50
11387;DHT22;5748;53.102;8.456;2024-02-14T03:15:09;10.70;69.50
11387;DHT22;5748;53.102;8.456;2024-02-14T03:17:37;10.70;69.50
11387;DHT22;5748;53.102;8.456;2024-02-14T03:20:05;10.70;69.60
11387;DHT22;5748;53.102;8.456;2024-02-14T03:22:38;10.70;69.70
11387;DHT22;5748;53.102;8.456;2024-02-14T03:25:12;10.70;69.80
11387;DHT22;5748;53.102;8.456;2024-02-14T03:27:40;10.70;69.80
11387;DHT22;5748;53.102;8.456;2024-02-14T03:30:08;10.70;69.90
11387;DHT22;5748;53.102;8.456;2024-02-14T03:32:37;10.70;70.00
11387;DHT22;5748;53.102;8.456;2024-02-14T03:35:04;10.70;70.10
11387;DHT22;5748;53.102;8.456;2024-02-14T03:37:32;10.80;70.10
11387;DHT22;5748;53.102;8.456;2024-02-14T03:39:59;10.80;70.10
11387;DHT22;5748;53.102;8.456;2024-02-14T03:42:29;10.80;70.10
11387;DHT22;5748;53.102;8.456;2024-02-14T03:44:57;10.80;70.10
11387;DHT22;5748;53.102;8.456;2024-02-14T03:47:28;10.80;70.20
11387;DHT22;5748;53.102;8.456;2024-02-14T03:49:56;10.80;70.20
11387;DHT22;5748;53.102;8.456;2024-02-14T03:52:23;10.80;70.20
11387;DHT22;5748;53.102;8.456;2024-02-14T03:54:50;10.80;70.20
11387;DHT22;5748;53.102;8.456;2024-02-14T03:57:17;10.80;70.20
11387;DHT22;5748;53.102;8.456;2024-02-14T03:59:45;10.80;70.20
11387;DHT22;5748;53.102;8.456;2024-02-14T04:02:14;10.90;70.30
11387;DHT22;5748;53.102;8.456;2024-02-14T04:04:41;10.90;70.30
11387;DHT22;5748;53.102;8.456;2024-02-14T04:07:09;10.90;70.30
11387;DHT22;5748;53.102;8.456;2024-02-14T04:09:36;10.90;70.20
11387;DHT22;5748;53.102;8.456;2024-02-14T04:12:04;11.00;70.40
11387;DHT22;5748;53.102;8.456;2024-02-14T04:14:31;11.00;70.40
11387;DHT22;5748;53.102;8.456;2024-02-14T04:16:58;11.00;70.40
11387;DHT22;5748;53.102;8.456;2024-02-14T04:19:26;11.00;70.40
11387;DHT22;5748;53.102;8.456;2024-02-14T04:21:54;11.00;70.40
11387;DHT22;5748;53.102;8.456;2024-02-14T04:24:21;11.00;70.50
11387;DHT22;5748;53.102;8.456;2024-02-14T04:26:48;11.00;70.50
11387;DHT22;5748;53.102;8.456;2024-02-14T04:29:15;11.00;70.60
11387;DHT22;5748;53.102;8.456;2024-02-14T04:31:42;11.00;70.60
11387;DHT22;5748;53.102;8.456;2024-02-14T04:34:09;11.10;70.70
11387;DHT22;5748;53.102;8.456;2024-02-14T04:36:39;11.10;70.80
11387;DHT22;5748;53.102;8.456;2024-02-14T04:39:06;11.10;70.70
11387;DHT22;5748;53.102;8.456;2024-02-14T04:41:34;11.10;70.80
11387;DHT22;5748;53.102;8.456;2024-02-14T04:44:03;11.10;70.80
11387;DHT22;5748;53.102;8.456;2024-02-14T04:46:31;11.10;70.80
11387;DHT22;5748;53.102;8.456;2024-02-14T04:49:00;11.20;70.90
11387;DHT22;5748;53.102;8.456;2024-02-14T04:51:28;11.20;71.00
11387;DHT22;5748;53.102;8.456;2024-02-14T04:53:57;11.20;71.10
11387;DHT22;5748;53.102;8.456;2024-02-14T04:56:24;11.20;71.00
11387;DHT22;5748;53.102;8.456;2024-02-14T04:58:52;11.20;71.10
11387;DHT22;5748;53.102;8.456;2024-02-14T05:01:20;11.20;71.00
11387;DHT22;5748;53.102;8.456;2024-02-14T05:03:48;11.20;71.00
11387;DHT22;5748;53.102;8.456;2024-02-14T05:06:15;11.20;71.00
11387;DHT22;5748;53.102;8.456;2024-02-14T05:08:42;11.30;71.20
11387;DHT22;5748;53.102;8.456;2024-02-14T05:11:10;11.30;71.20
11387;DHT22;5748;53.102;8.456;2024-02-14T05:13:37;11.30;71.20
11387;DHT22;5748;53.102;8.456;2024-02-14T05:16:07;11.30;71.20
11387;DHT22;5748;53.102;8.456;2024-02-14T05:18:36;11.40;72.00
11387;DHT22;5748;53.102;8.456;2024-02-14T05:21:05;12.30;72.20
11387;DHT22;5748;53.102;8.456;2024-02-14T05:23:33;11.40;71.30
11387;DHT22;5748;53.102;8.456;2024-02-14T05:26:01;11.50;71.30
11387;DHT22;5748;53.102;8.456;2024-02-14T05:28:30;11.40;71.30
11387;DHT22;5748;53.102;8.456;2024-02-14T05:30:57;11.40;71.30
11387;DHT22;5748;53.102;8.456;2024-02-14T05:33:25;11.50;71.40
11387;DHT22;5748;53.102;8.456;2024-02-14T05:35:52;11.40;71.30
11387;DHT22;5748;53.102;8.456;2024-02-14T05:38:19;11.50;71.40
11387;DHT22;5748;53.102;8.456;2024-02-14T05:40:47;11.50;71.50
11387;DHT22;5748;53.102;8.456;2024-02-14T05:43:15;11.60;71.60
11387;DHT22;5748;53.102;8.456;2024-02-14T05:45:44;11.50;71.50
11387;DHT22;5748;53.102;8.456;2024-02-14T05:48:11;11.60;71.60
11387;DHT22;5748;53.102;8.456;2024-02-14T05:50:38;11.60;71.70
11387;DHT22;5748;53.102;8.456;2024-02-14T05:53:04;11.60;71.60
11387;DHT22;5748;53.102;8.456;2024-02-14T05:55:31;11.70;71.70
11387;DHT22;5748;53.102;8.456;2024-02-14T05:57:59;11.70;71.80
11387;DHT22;5748;53.102;8.456;2024-02-14T06:00:26;11.70;72.00
11387;DHT22;5748;53.102;8.456;2024-02-14T06:02:54;11.70;71.70
11387;DHT22;5748;53.102;8.456;2024-02-14T06:05:21;11.70;71.80
11387;DHT22;5748;53.102;8.456;2024-02-14T06:07:49;11.80;72.00
11387;DHT22;5748;53.102;8.456;2024-02-14T06:10:17;11.80;72.10
11387;DHT22;5748;53.102;8.456;2024-02-14T06:12:44;11.80;72.10
11387;DHT22;5748;53.102;8.456;2024-02-14T06:15:13;11.90;72.20
11387;DHT22;5748;53.102;8.456;2024-02-14T06:17:40;11.90;72.10
11387;DHT22;5748;53.102;8.456;2024-02-14T06:20:09;11.90;72.10
11387;DHT22;5748;53.102;8.456;2024-02-14T06:22:38;11.90;72.30
11387;DHT22;5748;53.102;8.456;2024-02-14T06:25:05;11.90;72.20
11387;DHT22;5748;53.102;8.456;2024-02-14T06:27:33;11.80;72.60
11387;DHT22;5748;53.102;8.456;2024-02-14T06:30:00;11.90;73.30
11387;DHT22;5748;53.102;8.456;2024-02-14T06:32:27;11.90;73.10
11387;DHT22;5748;53.102;8.456;2024-02-14T06:34:54;12.00;73.00
11387;DHT22;5748;53.102;8.456;2024-02-14T06:37:22;12.10;73.00
11387;DHT22;5748;53.102;8.456;2024-02-14T06:39:49;12.10;73.00
11387;DHT22;5748;53.102;8.456;2024-02-14T06:42:17;12.30;73.80
11387;DHT22;5748;53.102;8.456;2024-02-14T06:44:45;12.20;72.90
11387;DHT22;5748;53.102;8.456;2024-02-14T06:47:12;12.20;72.80
11387;DHT22;5748;53.102;8.456;2024-02-14T06:49:40;12.20;72.90
11387;DHT22;5748;53.102;8.456;2024-02-14T06:52:07;12.40;73.10
11387;DHT22;5748;53.102;8.456;2024-02-14T06:54:35;12.30;73.00
11387;DHT22;5748;53.102;8.456;2024-02-14T06:57:03;12.20;72.90
11387;DHT22;5748;53.102;8.456;2024-02-14T06:59:30;12.30;73.00
11387;DHT22;5748;53.102;8.456;2024-02-14T07:01:57;12.40;73.20
11387;DHT22;5748;53.102;8.456;2024-02-14T07:04:25;12.50;73.20
11387;DHT22;5748;53.102;8.456;2024-02-14T07:06:52;12.40;73.10
11387;DHT22;5748;53.102;8.456;2024-02-14T07:09:20;12.50;73.30
11387;DHT22;5748;53.102;8.456;2024-02-14T07:11:48;12.50;73.20
11387;DHT22;5748;53.102;8.456;2024-02-14T07:14:16;12.60;73.40
11387;DHT22;5748;53.102;8.456;2024-02-14T07:16:43;12.50;73.20
11387;DHT22;5748;53.102;8.456;2024-02-14T07:19:10;12.60;73.20
11387;DHT22;5748;53.102;8.456;2024-02-14T07:21:37;12.60;73.30
11387;DHT22;5748;53.102;8.456;2024-02-14T07:24:05;12.70;73.30
11387;DHT22;5748;53.102;8.456;2024-02-14T07:26:32;12.70;73.40
11387;DHT22;5748;53.102;8.456;2024-02-14T07:29:00;12.70;73.30
11387;DHT22;5748;53.102;8.456;2024-02-14T07:31:29;12.70;73.30
11387;DHT22;5748;53.102;8.456;2024-02-14T07:33:58;12.70;73.50
11387;DHT22;5748;53.102;8.456;2024-02-14T07:36:25;12.80;73.50
11387;DHT22;5748;53.102;8.456;2024-02-14T07:38:53;12.80;73.60
11387;DHT22;5748;53.102;8.456;2024-02-14T07:41:19;12.80;73.60
11387;DHT22;5748;53.102;8.456;2024-02-14T07:43:47;12.90;74.70
11387;DHT22;5748;53.102;8.456;2024-02-14T07:46:18;12.90;73.80
11387;DHT22;5748;53.102;8.456;2024-02-14T07:48:45;12.90;73.90
11387;DHT22;5748;53.102;8.456;2024-02-14T07:51:14;12.90;73.90
11387;DHT22;5748;53.102;8.456;2024-02-14T07:53:41;12.90;74.50
11387;DHT22;5748;53.102;8.456;2024-02-14T07:56:08;12.90;74.40
11387;DHT22;5748;53.102;8.456;2024-02-14T07:58:35;13.00;74.40
11387;DHT22;5748;53.102;8.456;2024-02-14T08:01:02;13.00;74.30
11387;DHT22;5748;53.102;8.456;2024-02-14T08:03:31;13.00;74.40
11387;DHT22;5748;53.102;8.456;2024-02-14T08:05:58;13.20;74.60
11387;DHT22;5748;53.102;8.456;2024-02-14T08:08:26;13.10;74.40
11387;DHT22;5748;53.102;8.456;2024-02-14T08:10:53;13.10;74.30
11387;DHT22;5748;53.102;8.456;2024-02-14T08:13:20;13.20;74.70
11387;DHT22;5748;53.102;8.456;2024-02-14T08:15:48;13.20;74.50
11387;DHT22;5748;53.102;8.456;2024-02-14T08:18:15;13.20;74.70
11387;DHT22;5748;53.102;8.456;2024-02-14T08:20:43;13.30;74.50
11387;DHT22;5748;53.102;8.456;2024-02-14T08:23:10;13.30;74.60
11387;DHT22;5748;53.102;8.456;2024-02-14T08:25:37;13.30;74.40
11387;DHT22;5748;53.102;8.456;2024-02-14T08:28:05;13.40;74.40
11387;DHT22;5748;53.102;8.456;2024-02-14T08:30:33;13.30;74.40
11387;DHT22;5748;53.102;8.456;2024-02-14T08:33:00;13.40;74.40
11387;DHT22;5748;53.102;8.456;2024-02-14T08:35:27;13.40;75.40
11387;DHT22;5748;53.102;8.456;2024-02-14T08:37:55;13.40;74.80
11387;DHT22;5748;53.102;8.456;2024-02-14T08:40:22;13.50;74.70
11387;DHT22;5748;53.102;8.456;2024-02-14T08:42:49;13.40;74.70
11387;DHT22;5748;53.102;8.456;2024-02-14T08:45:16;13.50;74.70
11387;DHT22;5748;53.102;8.456;2024-02-14T08:47:44;13.50;74.70
11387;DHT22;5748;53.102;8.456;2024-02-14T08:50:11;13.60;74.90
11387;DHT22;5748;53.102;8.456;2024-02-14T08:52:39;13.60;74.90
11387;DHT22;5748;53.102;8.456;2024-02-14T08:55:08;13.50;75.20
11387;DHT22;5748;53.102;8.456;2024-02-14T08:57:40;13.60;75.10
11387;DHT22;5748;53.102;8.456;2024-02-14T09:00:08;13.60;75.30
11387;DHT22;5748;53.102;8.456;2024-02-14T09:02:36;13.70;75.50
11387;DHT22;5748;53.102;8.456;2024-02-14T09:05:04;13.70;75.40
11387;DHT22;5748;53.102;8.456;2024-02-14T09:07:31;13.80;75.50
11387;DHT22;5748;53.102;8.456;2024-02-14T09:09:59;13.80;75.60
11387;DHT22;5748;53.102;8.456;2024-02-14T09:12:28;13.80;75.80
11387;DHT22;5748;53.102;8.456;2024-02-14T09:14:55;13.90;76.00
11387;DHT22;5748;53.102;8.456;2024-02-14T09:17:23;13.90;75.80
11387;DHT22;5748;53.102;8.456;2024-02-14T09:19:50;14.00;75.80
11387;DHT22;5748;53.102;8.456;2024-02-14T09:22:17;14.00;75.80
11387;DHT22;5748;53.102;8.456;2024-02-14T09:24:46;14.10;75.90
11387;DHT22;5748;53.102;8.456;2024-02-14T09:27:13;14.10;75.80
11387;DHT22;5748;53.102;8.456;2024-02-14T09:29:42;14.20;75.90
11387;DHT22;5748;53.102;8.456;2024-02-14T09:32:09;14.30;75.80
11387;DHT22;5748;53.102;8.456;2024-02-14T09:34:36;14.30;75.80
11387;DHT22;5748;53.102;8.456;2024-02-14T09:37:03;14.30;75.70
11387;DHT22;5748;53.102;8.456;2024-02-14T09:39:32;14.40;75.70
11387;DHT22;5748;53.102;8.456;2024-02-14T09:42:07;14.40;75.70
11387;DHT22;5748;53.102;8.456;2024-02-14T09:44:36;14.40;76.30
11387;DHT22;5748;53.102;8.456;2024-02-14T09:47:06;14.50;75.70
11387;DHT22;5748;53.102;8.456;2024-02-14T09:49:35;14.50;75.60
11387;DHT22;5748;53.102;8.456;2024-02-14T09:52:03;14.50;75.70
11387;DHT22;5748;53.102;8.456;2024-02-14T09:54:31;14.50;75.70
11387;DHT22;5748;53.102;8.456;2024-02-14T09:57:00;14.60;75.80
11387;DHT22;5748;53.102;8.456;2024-02-14T09:59:29;14.70;75.80
11387;DHT22;5748;53.102;8.456;2024-02-14T10:01:56;14.60;75.60
11387;DHT22;5748;53.102;8.456;2024-02-14T10:04:25;14.70;75.80
11387;DHT22;5748;53.102;8.456;2024-02-14T10:06:52;14.70;75.90
11387;DHT22;5748;53.102;8.456;2024-02-14T10:09:20;14.80;76.10
11387;DHT22;5748;53.102;8.456;2024-02-14T10:11:47;14.80;76.30
11387;DHT22;5748;53.102;8.456;2024-02-14T10:14:14;14.90;76.40
11387;DHT22;5748;53.102;8.456;2024-02-14T10:16:41;14.90;76.20
11387;DHT22;5748;53.102;8.456;2024-02-14T10:19:15;15.00;77.00
11387;DHT22;5748;53.102;8.456;2024-02-14T10:21:44;15.00;76.30
11387;DHT22;5748;53.102;8.456;2024-02-14T10:24:22;15.10;76.30
11387;DHT22;5748;53.102;8.456;2024-02-14T10:26:49;15.10;76.10
11387;DHT22;5748;53.102;8.456;2024-02-14T10:29:16;15.10;76.00
11387;DHT22;5748;53.102;8.456;2024-02-14T10:31:43;15.20;75.90
11387;DHT22;5748;53.102;8.456;2024-02-14T10:34:10;15.20;75.80
11387;DHT22;5748;53.102;8.456;2024-02-14T10:36:38;15.20;75.80
11387;DHT22;5748;53.102;8.456;2024-02-14T10:39:09;15.30;75.80
11387;DHT22;5748;53.102;8.456;2024-02-14T10:41:37;15.30;75.90
11387;DHT22;5748;53.102;8.456;2024-02-14T10:44:05;15.30;75.70
11387;DHT22;5748;53.102;8.456;2024-02-14T10:46:33;15.30;75.50
11387;DHT22;5748;53.102;8.456;2024-02-14T10:49:05;15.30;75.50
11387;DHT22;5748;53.102;8.456;2024-02-14T10:51:34;15.40;75.40
11387;DHT22;5748;53.102;8.456;2024-02-14T10:54:03;15.30;75.20
11387;DHT22;5748;53.102;8.456;2024-02-14T10:56:33;15.30;75.10
11387;DHT22;5748;53.102;8.456;2024-02-14T10:59:01;15.30;75.10
11387;DHT22;5748;53.102;8.456;2024-02-14T11:01:30;15.20;75.10
11387;DHT22;5748;53.102;8.456;2024-02-14T11:03:59;15.30;75.20
11387;DHT22;5748;53.102;8.456;2024-02-14T11:06:26;15.30;75.30
11387;DHT22;5748;53.102;8.456;2024-02-14T11:08:58;15.30;75.20
11387;DHT22;5748;53.102;8.456;2024-02-14T11:11:29;15.30;75.30
11387;DHT22;5748;53.102;8.456;2024-02-14T11:13:57;15.30;75.30
11387;DHT22;5748;53.102;8.456;2024-02-14T11:16:28;15.30;75.30
11387;DHT22;5748;53.102;8.456;2024-02-14T11:19:06;15.30;75.30
11387;DHT22;5748;53.102;8.456;2024-02-14T11:21:35;15.30;75.50
11387;DHT22;5748;53.102;8.456;2024-02-14T11:24:06;15.30;75.40
11387;DHT22;5748;53.102;8.456;2024-02-14T11:26:46;15.30;75.60
11387;DHT22;5748;53.102;8.456;2024-02-14T11:29:16;15.30;75.70
11387;DHT22;5748;53.102;8.456;2024-02-14T11:31:43;15.30;75.60
11387;DHT22;5748;53.102;8.456;2024-02-14T11:34:12;15.30;76.50
11387;DHT22;5748;53.102;8.456;2024-02-14T11:36:43;15.40;75.80
11387;DHT22;5748;53.102;8.456;2024-02-14T11:39:11;15.40;75.80
11387;DHT22;5748;53.102;8.456;2024-02-14T11:41:39;15.40;75.80
11387;DHT22;5748;53.102;8.456;2024-02-14T11:44:07;15.40;75.80
11387;DHT22;5748;53.102;8.456;2024-02-14T11:46:36;15.50;75.80
11387;DHT22;5748;53.102;8.456;2024-02-14T11:49:05;15.50;75.60
11387;DHT22;5748;53.102;8.456;2024-02-14T11:51:33;15.50;76.30
11387;DHT22;5748;53.102;8.456;2024-02-14T11:54:01;15.50;75.50
11387;DHT22;5748;53.102;8.456;2024-02-14T11:56:30;15.40;75.30
11387;DHT22;5748;53.102;8.456;2024-02-14T11:59:00;15.50;75.50
11387;DHT22;5748;53.102;8.456;2024-02-14T12:01:29;15.50;75.40
11387;DHT22;5748;53.102;8.456;2024-02-14T12:03:59;15.40;75.30
11387;DHT22;5748;53.102;8.456;2024-02-14T12:06:27;15.50;75.40
11387;DHT22;5748;53.102;8.456;2024-02-14T12:08:54;15.50;75.40
11387;DHT22;5748;53.102;8.456;2024-02-14T12:11:22;15.50;75.50
11387;DHT22;5748;53.102;8.456;2024-02-14T12:13:49;15.50;75.50
11387;DHT22;5748;53.102;8.456;2024-02-14T12:16:20;15.50;75.70
11387;DHT22;5748;53.102;8.456;2024-02-14T12:18:47;15.50;76.30
11387;DHT22;5748;53.102;8.456;2024-02-14T12:21:15;15.50;75.60
11387;DHT22;5748;53.102;8.456;2024-02-14T12:23:42;15.60;75.60
11387;DHT22;5748;53.102;8.456;2024-02-14T12:26:10;15.50;75.40
11387;DHT22;5748;53.102;8.456;2024-02-14T12:28:46;15.60;75.60
11387;DHT22;5748;53.102;8.456;2024-02-14T12:31:22;15.60;75.70
11387;DHT22;5748;53.102;8.456;2024-02-14T12:33:49;15.60;75.70
11387;DHT22;5748;53.102;8.456;2024-02-14T12:36:19;15.70;75.60
11387;DHT22;5748;53.102;8.456;2024-02-14T12:38:46;15.70;75.60
11387;DHT22;5748;53.102;8.456;2024-02-14T12:41:14;15.60;75.50
11387;DHT22;5748;53.102;8.456;2024-02-14T12:43:41;15.70;75.60
11387;DHT22;5748;53.102;8.456;2024-02-14T12:46:08;15.70;75.60
11387;DHT22;5748;53.102;8.456;2024-02-14T12:48:35;15.70;75.50
11387;DHT22;5748;53.102;8.456;2024-02-14T12:51:02;15.70;76.20
11387;DHT22;5748;53.102;8.456;2024-02-14T12:53:30;15.70;75.50
11387;DHT22;5748;53.102;8.456;2024-02-14T12:55:57;15.70;75.50
11387;DHT22;5748;53.102;8.456;2024-02-14T12:58:25;15.80;75.60
11387;DHT22;5748;53.102;8.456;2024-02-14T13:00:52;15.70;75.40
11387;DHT22;5748;53.102;8.456;2024-02-14T13:03:19;15.70;75.40
11387;DHT22;5748;53.102;8.456;2024-02-14T13:05:46;15.70;75.40
11387;DHT22;5748;53.102;8.456;2024-02-14T13:08:14;15.70;75.50
11387;DHT22;5748;53.102;8.456;2024-02-14T13:10:44;15.70;75.60
11387;DHT22;5748;53.102;8.456;2024-02-14T13:13:11;15.70;75.60
11387;DHT22;5748;53.102;8.456;2024-02-14T13:15:39;15.70;75.80
11387;DHT22;5748;53.102;8.456;2024-02-14T13:18:06;15.70;75.60
11387;DHT22;5748;53.102;8.456;2024-02-14T13:20:33;15.80;75.80
11387;DHT22;5748;53.102;8.456;2024-02-14T13:23:01;15.70;75.70
11387;DHT22;5748;53.102;8.456;2024-02-14T13:25:29;15.60;75.60
11387;DHT22;5748;53.102;8.456;2024-02-14T13:27:57;15.70;75.90
11387;DHT22;5748;53.102;8.456;2024-02-14T13:30:24;15.70;75.90
11387;DHT22;5748;53.102;8.456;2024-02-14T13:32:51;15.70;76.00
11387;DHT22;5748;53.102;8.456;2024-02-14T13:35:18;15.70;75.80
11387;DHT22;5748;53.102;8.456;2024-02-14T13:37:45;15.70;75.80
11387;DHT22;5748;53.102;8.456;2024-02-14T13:40:13;15.70;75.80
11387;DHT22;5748;53.102;8.456;2024-02-14T13:42:40;15.70;75.80
11387;DHT22;5748;53.102;8.456;2024-02-14T13:45:08;15.70;75.80
11387;DHT22;5748;53.102;8.456;2024-02-14T13:47:36;15.70;75.80
11387;DHT22;5748;53.102;8.456;2024-02-14T13:50:05;15.70;75.80
11387;DHT22;5748;53.102;8.456;2024-02-14T13:52:33;15.80;75.80
11387;DHT22;5748;53.102;8.456;2024-02-14T13:55:01;15.70;75.70
11387;DHT22;5748;53.102;8.456;2024-02-14T13:57:28;15.80;75.80
11387;DHT22;5748;53.102;8.456;2024-02-14T13:59:56;15.80;75.90
11387;DHT22;5748;53.102;8.456;2024-02-14T14:02:24;15.70;75.90
11387;DHT22;5748;53.102;8.456;2024-02-14T14:04:51;15.80;76.10
11387;DHT22;5748;53.102;8.456;2024-02-14T14:07:19;15.90;76.20
11387;DHT22;5748;53.102;8.456;2024-02-14T14:09:46;15.90;76.10
11387;DHT22;5748;53.102;8.456;2024-02-14T14:12:13;15.90;76.00
11387;DHT22;5748;53.102;8.456;2024-02-14T14:14:40;15.90;75.90
11387;DHT22;5748;53.102;8.456;2024-02-14T14:17:07;15.90;75.80
11387;DHT22;5748;53.102;8.456;2024-02-14T14:19:35;15.90;75.70
11387;DHT22;5748;53.102;8.456;2024-02-14T14:22:02;16.00;75.80
11387;DHT22;5748;53.102;8.456;2024-02-14T14:24:30;16.00;75.70
11387;DHT22;5748;53.102;8.456;2024-02-14T14:26:57;16.00;75.70
11387;DHT22;5748;53.102;8.456;2024-02-14T14:29:24;16.10;75.90
11387;DHT22;5748;53.102;8.456;2024-02-14T14:31:51;16.10;75.90
11387;DHT22;5748;53.102;8.456;2024-02-14T14:34:19;16.10;75.90
11387;DHT22;5748;53.102;8.456;2024-02-14T14:36:47;16.10;75.80
11387;DHT22;5748;53.102;8.456;2024-02-14T14:39:14;16.10;75.70
11387;DHT22;5748;53.102;8.456;2024-02-14T14:41:41;16.10;75.60
11387;DHT22;5748;53.102;8.456;2024-02-14T14:44:09;16.10;75.50
11387;DHT22;5748;53.102;8.456;2024-02-14T14:46:37;16.10;75.40
11387;DHT22;5748;53.102;8.456;2024-02-14T14:49:08;16.20;75.40
11387;DHT22;5748;53.102;8.456;2024-02-14T14:51:35;16.20;75.50
11387;DHT22;5748;53.102;8.456;2024-02-14T14:54:05;16.10;75.20
11387;DHT22;5748;53.102;8.456;2024-02-14T14:56:32;16.10;75.20
11387;DHT22;5748;53.102;8.456;2024-02-14T14:58:59;16.10;75.20
11387;DHT22;5748;53.102;8.456;2024-02-14T15:01:28;16.10;75.20
11387;DHT22;5748;53.102;8.456;2024-02-14T15:03:56;16.10;75.20
11387;DHT22;5748;53.102;8.456;2024-02-14T15:06:23;16.00;75.10
11387;DHT22;5748;53.102;8.456;2024-02-14T15:08:50;16.00;75.20
11387;DHT22;5748;53.102;8.456;2024-02-14T15:11:19;16.00;75.90
11387;DHT22;5748;53.102;8.456;2024-02-14T15:13:46;16.00;75.20
11387;DHT22;5748;53.102;8.456;2024-02-14T15:16:13;15.90;75.10
11387;DHT22;5748;53.102;8.456;2024-02-14T15:18:41;15.90;75.10
11387;DHT22;5748;53.102;8.456;2024-02-14T15:21:09;15.90;75.20
11387;DHT22;5748;53.102;8.456;2024-02-14T15:23:36;15.90;75.50
11387;DHT22;5748;53.102;8.456;2024-02-14T15:26:04;15.80;75.40
11387;DHT22;5748;53.102;8.456;2024-02-14T15:28:33;15.80;75.50
11387;DHT22;5748;53.102;8.456;2024-02-14T15:31:06;15.70;75.50
11387;DHT22;5748;53.102;8.456;2024-02-14T15:33:50;15.70;75.50
11387;DHT22;5748;53.102;8.456;2024-02-14T15:36:17;15.80;75.60
11387;DHT22;5748;53.102;8.456;2024-02-14T15:38:44;15.70;75.60
11387;DHT22;5748;53.102;8.456;2024-02-14T15:41:11;15.70;75.60
11387;DHT22;5748;53.102;8.456;2024-02-14T15:43:41;15.70;75.60
11387;DHT22;5748;53.102;8.456;2024-02-14T15:46:10;15.70;75.60
11387;DHT22;5748;53.102;8.456;2024-02-14T15:48:37;15.10;75.00